Latest Coastal Weather Observations for Tewantin

IDQ60701

Issued at 3:35 am EST Saturday 23 August 2014 (issued every 10 minutes, with the page automatically refreshed every 10 minutes)

About coastal observations | Map of coastal stations | Coastal observations for QLD | Marine services | Other Formats
Station Details ID: 040908 Name: TEWANTIN RSL PARK Lat: -26.39 Lon: 153.04 Height: 6.4 m
Data from the previous 72 hours. | See also: Recent months at Tewantin
Date/Time
EST
Temp

°C
Wind Pressure Rain
since 9am
mm
Weather Cloud Vis
km
Sea
Height
m
Swell
Dir
 
Speed
knots
Gust
knots
hPa Trend Height
m
Period
s
Dir
23/03:33am 14.7 S 15 29 1018.2 - 52.6 - - - - - - -
23/03:30am 14.8 S 14 26 1018.3 - 52.6 - - - - - - -
23/03:00am 14.6 S 14 23 1019.0 - 51.6 Rain - - - - - -
23/02:30am 14.6 S 11 16 1019.8 - 51.0 - - - - - - -
23/02:00am 14.4 S 10 19 1020.4 - 49.8 - - - - - - -
23/01:30am 14.5 S 13 20 1020.4 - 48.2 - - - - - - -
23/01:00am 14.5 S 13 19 1020.8 - 46.8 - - - - - - -
23/12:30am 14.5 S 7 11 1022.3 - 44.2 - - - - - - -
23/12:00am 14.5 S 8 13 1022.4 - 41.6 Rain - - - - - -
 
Date/Time
EST
Temp

°C
Wind Pressure Rain
since 9am
mm
Weather Cloud Vis
km
Sea
Height
m
Swell
Dir
 
Speed
knots
Gust
knots
hPa Trend Height
m
Period
s
Dir
22/11:30pm 14.4 S 9 14 1022.1 - 40.2 - - - - - - -
22/11:00pm 14.5 S 8 12 1022.7 - 37.6 - - - - - - -
22/10:30pm 14.4 SSW 6 11 1022.9 - 37.2 - - - - - - -
22/10:00pm 14.6 S 9 16 1022.7 - 35.8 - - - - - - -
22/09:30pm 14.7 S 11 15 1023.0 - 35.6 - - - - - - -
22/09:00pm 14.8 S 9 15 1023.1 - 35.2 Rain - - - - - -
22/08:30pm 15.1 S 9 17 1023.5 - 34.6 - - - - - - -
22/08:00pm 15.4 S 9 15 1023.1 - 34.2 - - - - - - -
22/07:30pm 15.4 S 9 15 1023.0 - 33.6 - - - - - - -
22/07:00pm 15.4 S 9 12 1022.9 - 33.4 - - - - - - -
22/06:30pm 15.4 SSW 5 9 1023.1 - 31.4 - - - - - - -
22/06:00pm 15.7 S 9 15 1022.2 - 28.4 Rain - - - - - -
22/05:30pm 15.8 S 7 10 1022.3 - 28.0 - - - - - - -
22/05:00pm 15.7 S 5 7 1022.4 - 26.8 - - - - - - -
22/04:30pm 15.8 S 5 8 1022.2 - 25.8 - - - - - - -
22/04:00pm 15.9 S 6 8 1022.0 - 25.4 - - - - - - -
22/03:30pm 15.8 SSE 5 8 1021.9 - 24.8 - - - - - - -
22/03:00pm 15.9 S 8 11 1021.7 - 24.2 Rain - - - - - -
22/02:30pm 15.7 S 5 10 1022.1 - 23.6 - - - - - - -
22/02:00pm 15.6 SSE 7 11 1022.2 - 23.2 - - - - - - -
22/01:30pm 15.1 SSE 8 12 1022.5 - 22.8 - - - - - - -
22/01:00pm 15.2 SSE 7 13 1023.1 - 21.8 - - - - - - -
22/12:30pm 15.7 SSE 6 10 1023.4 - 20.6 - - - - - - -
22/12:00pm 15.5 SSE 9 16 1023.5 - 19.8 Rain - - - - - -
22/11:30am 16.0 SSE 8 15 1024.0 - 19.2 - - - - - - -
22/11:00am 15.8 SSE 8 14 1024.5 - 18.2 - - - - - - -
22/10:30am 15.9 SSE 9 16 1024.7 - 16.6 - - - - - - -
22/10:00am 15.5 S 8 12 1024.9 - 5.6 - - - - - - -
22/09:30am 15.3 S 8 15 1025.0 - 3.0 - - - - - - -
22/09:00am 15.2 S 4 8 1024.8 - 25.8 Rain - - - - - -
22/08:30am 15.2 S 7 12 1024.5 - 22.2 - - - - - - -
22/08:00am 15.1 SSW 5 8 1024.4 - 19.6 - - - - - - -
22/07:30am 16.5 SSE 8 14 1023.8 - 19.4 - - - - - - -
22/07:00am 14.9 S 8 11 1023.3 - 19.4 - - - - - - -
22/06:30am 14.2 S 8 13 1023.2 - 19.2 - - - - - - -
22/06:00am 14.2 SSE 7 12 1023.1 - 18.0 Recent precip. - - - - - -
22/05:30am 14.2 S 9 15 1022.6 - 16.4 - - - - - - -
22/05:00am 14.2 SSW 7 12 1022.5 - 14.8 - - - - - - -
22/04:30am 14.2 S 8 11 1022.4 - 12.6 - - - - - - -
22/04:00am 14.6 SSW 7 13 1021.9 - 9.4 - - - - - - -
22/03:30am 14.9 S 8 12 1022.2 - 9.2 - - - - - - -
22/03:00am 14.9 S 9 15 1021.9 - 9.2 Recent precip. - - - - - -
22/02:30am 14.9 S 7 11 1022.5 - 9.2 - - - - - - -
22/02:00am 15.0 S 7 11 1022.8 - 9.0 - - - - - - -
22/01:30am 15.3 S 6 9 1022.9 - 7.8 - - - - - - -
22/01:00am 15.4 S 8 13 1022.7 - 7.6 - - - - - - -
22/12:30am 15.5 S 7 11 1022.8 - 7.6 - - - - - - -
22/12:00am 15.9 S 11 18 1022.3 - 7.4 Recent precip. - - - - - -
 
Date/Time
EST
Temp

°C
Wind Pressure Rain
since 9am
mm
Weather Cloud Vis
km
Sea
Height
m
Swell
Dir
 
Speed
knots
Gust
knots
hPa Trend Height
m
Period
s
Dir
21/11:30pm 15.8 S 11 16 1022.6 - 6.2 - - - - - - -
21/11:00pm 15.8 S 9 13 1022.9 - 5.0 - - - - - - -
21/10:30pm 16.2 S 9 16 1022.9 - 3.8 - - - - - - -
21/10:00pm 16.0 SSE 11 21 1022.9 - 2.6 - - - - - - -
21/09:30pm 16.1 S 11 19 1022.5 - 1.6 - - - - - - -
21/09:00pm 16.3 S 10 17 1022.6 - 0.0 - - - - - - -
21/08:30pm 17.0 S 10 15 1022.4 - 0.0 - - - - - - -
21/08:00pm 17.1 S 9 12 1022.3 - 0.0 - - - - - - -
21/07:30pm 17.2 S 11 17 1022.1 - 0.0 - - - - - - -
21/07:00pm 17.5 S 11 17 1022.0 - 0.0 - - - - - - -
21/06:30pm 17.6 S 10 16 1021.6 - 0.0 - - - - - - -
21/06:00pm 17.7 S 10 17 1021.3 - 0.0 - - - - - - -
21/05:30pm 18.0 SSE 9 14 1021.2 - 0.0 - - - - - - -
21/05:00pm 18.0 S 11 19 1020.9 - 0.0 - - - - - - -
21/04:43pm 18.2 S 15 25 1020.6 - 0.0 - - - - - - -
21/04:30pm 18.7 SSE 13 22 1020.5 - 0.0 - - - - - - -
21/04:00pm 19.2 S 12 19 1020.5 - 0.0 - - - - - - -
21/03:30pm 19.7 SSE 13 22 1019.9 - 0.0 - - - - - - -
21/03:00pm 20.0 SSE 11 21 1020.1 - 0.0 - - - - - - -
21/02:30pm 19.9 SSE 14 22 1020.3 - 0.0 - - - - - - -
21/02:00pm 20.0 S 14 21 1020.2 - 0.0 - - - - - - -
21/01:30pm 20.1 SSE 10 19 1020.4 - 0.0 - - - - - - -
21/01:00pm 20.4 SSE 13 21 1020.8 - 0.0 - - - - - - -
21/12:30pm 19.7 S 13 23 1021.1 - 0.0 - - - - - - -
21/12:00pm 20.0 S 13 20 1021.6 - 0.0 - - - - - - -
21/11:30am 20.3 SSE 12 21 1021.9 - 0.0 - - - - - - -
21/11:00am 19.3 SSE 13 19 1022.3 - 0.0 - - - - - - -
21/10:30am 19.0 SSE 10 19 1022.8 - 0.0 - - - - - - -
21/10:00am 18.2 S 11 18 1022.6 - 0.0 - - - - - - -
21/09:30am 18.4 S 11 23 1022.6 - 0.0 - - - - - - -
21/09:00am 17.3 S 11 17 1022.7 - - - - - - - - -
21/08:30am 17.0 S 12 18 1022.6 - - - - - - - - -
21/08:00am 16.3 S 11 19 1022.5 - - - - - - - - -
21/07:30am 16.1 S 11 18 1022.2 - - - - - - - - -
21/07:00am 15.4 S 9 13 1021.8 - - - - - - - - -
21/06:30am 15.1 S 9 12 1021.6 - - - - - - - - -
21/06:00am 15.1 S 8 11 1021.5 - - - - - - - - -
21/05:30am 15.3 S 9 14 1021.1 - - - - - - - - -
21/05:00am 15.3 S 9 13 1020.7 - - - - - - - - -
21/04:30am 15.2 S 8 13 1020.6 - - - - - - - - -
21/04:00am 15.2 S 10 15 1020.2 - - - - - - - - -
21/03:30am 15.3 S 9 12 1020.4 - - - - - - - - -
21/03:00am 15.3 S 9 13 1020.5 - 0.0 - - - - - - -
21/02:30am 15.4 S 9 15 1020.7 - - - - - - - - -
21/02:00am 15.4 S 9 14 1020.8 - - - - - - - - -
21/01:30am 15.4 S 9 13 1021.1 - - - - - - - - -
21/01:00am 15.6 S 8 13 1021.2 - - - - - - - - -
21/12:30am 16.0 S 8 14 1021.1 - - - - - - - - -
21/12:00am 16.0 S 8 12 1021.1 - - - - - - - - -
 
Date/Time
EST
Temp

°C
Wind Pressure Rain
since 9am
mm
Weather Cloud Vis
km
Sea
Height
m
Swell
Dir
 
Speed
knots
Gust
knots
hPa Trend Height
m
Period
s
Dir
20/11:30pm 15.7 S 7 9 1021.4 - - - - - - - - -
20/11:00pm 16.1 S 6 10 1021.7 - - - - - - - - -
20/10:30pm 17.4 S 8 12 1021.6 - - - - - - - - -
20/10:00pm 17.8 S 6 9 1021.8 - - - - - - - - -
20/09:30pm 18.4 SSE 7 13 1021.9 - - - - - - - - -
20/09:00pm 18.4 SSE 7 13 1021.8 - 0.0 - - - - - - -
20/08:30pm 18.5 SSE 7 11 1021.8 - - - - - - - - -
20/08:00pm 18.3 SSE 6 10 1021.8 - - - - - - - - -
20/07:30pm 18.3 S 7 11 1021.4 - - - - - - - - -
20/07:00pm 18.4 SSE 7 13 1021.0 - - - - - - - - -
20/06:30pm 18.3 SSE 7 11 1020.6 - - - - - - - - -
20/06:00pm 18.1 SE 7 12 1020.0 - - - - - - - - -
20/05:30pm 18.4 ESE 9 14 1019.5 - - - - - - - - -
20/05:00pm 18.7 SE 10 16 1019.0 - - - - - - - - -
20/04:30pm 19.0 SE 9 13 1018.9 - - - - - - - - -
20/04:00pm 18.9 SE 8 15 1018.7 - - - - - - - - -
20/03:30pm 18.9 ESE 8 11 1018.5 - - - - - - - - -
20/03:00pm 19.4 SE 9 13 1018.4 - - - - - - - - -
20/02:30pm 19.3 ESE 9 13 1018.4 - - - - - - - - -
20/02:00pm 19.4 SE 8 15 1018.5 - - - - - - - - -
20/01:30pm 20.0 SSE 10 13 1018.4 - - - - - - - - -
20/01:00pm 20.0 SE 8 13 1018.7 - - - - - - - - -
20/12:30pm 20.4 SSE 9 12 1018.8 - - - - - - - - -
20/12:00pm 20.2 SE 9 14 1019.0 - - - - - - - - -
20/11:30am 19.7 SSE 9 16 1019.4 - - - - - - - - -
20/11:00am 19.7 SE 10 16 1019.6 - - - - - - - - -
20/10:30am 19.7 SE 9 16 1019.9 - - - - - - - - -
20/10:00am 20.2 SSE 6 9 1019.8 - - - - - - - - -
20/08:30am 17.7 S 6 9 1019.8 - 0.0 - - - - - - -
20/08:00am 16.3 S 5 8 1019.7 - 0.0 - - - - - - -
20/07:30am 13.8 S 2 4 1019.5 - 0.0 - - - - - - -
20/07:00am 10.9 CALM 0 0 1019.2 - 0.0 - - - - - - -
20/06:30am 9.9 CALM 0 0 1018.7 - 0.0 - - - - - - -
20/06:00am 9.7 CALM 0 0 1018.5 - 0.0 - - - - - - -
20/05:30am 10.0 CALM 0 0 1018.0 - 0.0 - - - - - - -
20/05:00am 10.2 CALM 0 0 1017.6 - 0.0 - - - - - - -
20/04:30am 10.2 CALM 0 0 1017.3 - 0.0 - - - - - - -
20/04:00am 10.3 CALM 0 0 1016.8 - 0.0 - - - - - - -

Other Formats:

Comma delimited format used in spreadsheet applications
http://www.bom.gov.au/fwo/IDQ60701/IDQ60701.94570.axf

JavaScript Object Notation format (JSON) in row-major order
http://www.bom.gov.au/fwo/IDQ60701/IDQ60701.94570.json